sensor_id;sensor_type;location;lat;lon;timestamp;P1;durP1;ratioP1;P2;durP2;ratioP2
7605;SDS011;3844;53.360;9.738;2023-02-13T00:01:40;37.17;;;16.05;;
7605;SDS011;3844;53.360;9.738;2023-02-13T00:03:41;35.97;;;15.30;;
7605;SDS011;3844;53.360;9.738;2023-02-13T00:05:41;34.03;;;15.27;;
7605;SDS011;3844;53.360;9.738;2023-02-13T00:07:42;31.98;;;14.65;;
7605;SDS011;3844;53.360;9.738;2023-02-13T00:09:43;33.92;;;13.70;;
7605;SDS011;3844;53.360;9.738;2023-02-13T00:11:44;31.92;;;14.27;;
7605;SDS011;3844;53.360;9.738;2023-02-13T00:13:45;31.50;;;13.98;;
7605;SDS011;3844;53.360;9.738;2023-02-13T00:15:53;32.22;;;13.75;;
7605;SDS011;3844;53.360;9.738;2023-02-13T00:17:58;28.17;;;13.10;;
7605;SDS011;3844;53.360;9.738;2023-02-13T00:19:59;27.20;;;12.35;;
7605;SDS011;3844;53.360;9.738;2023-02-13T00:21:59;28.77;;;12.00;;
7605;SDS011;3844;53.360;9.738;2023-02-13T00:24:00;30.60;;;12.93;;
7605;SDS011;3844;53.360;9.738;2023-02-13T00:26:04;51.42;;;13.48;;
7605;SDS011;3844;53.360;9.738;2023-02-13T00:28:06;27.75;;;12.07;;
7605;SDS011;3844;53.360;9.738;2023-02-13T00:30:07;27.92;;;12.45;;
7605;SDS011;3844;53.360;9.738;2023-02-13T00:32:08;27.55;;;12.18;;
7605;SDS011;3844;53.360;9.738;2023-02-13T00:34:09;24.77;;;11.25;;
7605;SDS011;3844;53.360;9.738;2023-02-13T00:38:20;26.20;;;11.88;;
7605;SDS011;3844;53.360;9.738;2023-02-13T00:40:21;29.17;;;12.13;;
7605;SDS011;3844;53.360;9.738;2023-02-13T00:42:22;22.60;;;11.00;;
7605;SDS011;3844;53.360;9.738;2023-02-13T00:44:25;26.42;;;12.10;;
7605;SDS011;3844;53.360;9.738;2023-02-13T00:46:26;25.73;;;11.45;;
7605;SDS011;3844;53.360;9.738;2023-02-13T00:48:27;25.70;;;10.98;;
7605;SDS011;3844;53.360;9.738;2023-02-13T00:50:29;28.87;;;12.30;;
7605;SDS011;3844;53.360;9.738;2023-02-13T00:52:30;24.90;;;10.90;;
7605;SDS011;3844;53.360;9.738;2023-02-13T00:54:30;23.77;;;10.48;;
7605;SDS011;3844;53.360;9.738;2023-02-13T00:56:31;25.30;;;10.77;;
7605;SDS011;3844;53.360;9.738;2023-02-13T00:58:32;23.27;;;10.02;;
7605;SDS011;3844;53.360;9.738;2023-02-13T01:00:33;26.85;;;10.68;;
7605;SDS011;3844;53.360;9.738;2023-02-13T01:02:34;24.65;;;10.93;;
7605;SDS011;3844;53.360;9.738;2023-02-13T01:04:35;30.13;;;13.00;;
7605;SDS011;3844;53.360;9.738;2023-02-13T01:06:35;27.17;;;11.32;;
7605;SDS011;3844;53.360;9.738;2023-02-13T01:08:39;23.60;;;10.65;;
7605;SDS011;3844;53.360;9.738;2023-02-13T01:10:40;22.67;;;10.82;;
7605;SDS011;3844;53.360;9.738;2023-02-13T01:12:42;25.40;;;10.55;;
7605;SDS011;3844;53.360;9.738;2023-02-13T01:14:42;51.22;;;13.50;;
7605;SDS011;3844;53.360;9.738;2023-02-13T01:16:43;42.28;;;13.10;;
7605;SDS011;3844;53.360;9.738;2023-02-13T01:18:44;26.75;;;11.40;;
7605;SDS011;3844;53.360;9.738;2023-02-13T01:20:45;31.77;;;12.23;;
7605;SDS011;3844;53.360;9.738;2023-02-13T01:22:59;30.77;;;12.40;;
7605;SDS011;3844;53.360;9.738;2023-02-13T01:24:59;26.85;;;11.30;;
7605;SDS011;3844;53.360;9.738;2023-02-13T01:27:00;26.98;;;11.00;;
7605;SDS011;3844;53.360;9.738;2023-02-13T01:29:01;32.97;;;11.68;;
7605;SDS011;3844;53.360;9.738;2023-02-13T01:31:02;21.67;;;9.70;;
7605;SDS011;3844;53.360;9.738;2023-02-13T01:33:02;22.85;;;9.98;;
7605;SDS011;3844;53.360;9.738;2023-02-13T01:35:03;23.10;;;9.93;;
7605;SDS011;3844;53.360;9.738;2023-02-13T01:37:04;28.50;;;10.88;;
7605;SDS011;3844;53.360;9.738;2023-02-13T01:39:05;20.63;;;9.18;;
7605;SDS011;3844;53.360;9.738;2023-02-13T01:41:06;24.65;;;9.70;;
7605;SDS011;3844;53.360;9.738;2023-02-13T01:43:07;17.92;;;8.70;;
7605;SDS011;3844;53.360;9.738;2023-02-13T01:45:21;25.23;;;11.32;;
7605;SDS011;3844;53.360;9.738;2023-02-13T01:47:26;22.98;;;10.38;;
7605;SDS011;3844;53.360;9.738;2023-02-13T01:49:36;22.40;;;9.55;;
7605;SDS011;3844;53.360;9.738;2023-02-13T01:51:39;23.27;;;10.57;;
7605;SDS011;3844;53.360;9.738;2023-02-13T01:53:45;20.67;;;9.45;;
7605;SDS011;3844;53.360;9.738;2023-02-13T01:55:54;25.38;;;10.90;;
7605;SDS011;3844;53.360;9.738;2023-02-13T01:58:07;19.60;;;9.35;;
7605;SDS011;3844;53.360;9.738;2023-02-13T02:00:11;20.98;;;9.52;;
7605;SDS011;3844;53.360;9.738;2023-02-13T02:02:14;21.50;;;9.05;;
7605;SDS011;3844;53.360;9.738;2023-02-13T02:04:17;20.45;;;8.73;;
7605;SDS011;3844;53.360;9.738;2023-02-13T02:06:26;18.65;;;8.65;;
7605;SDS011;3844;53.360;9.738;2023-02-13T02:08:29;21.05;;;8.57;;
7605;SDS011;3844;53.360;9.738;2023-02-13T02:10:31;18.55;;;8.57;;
7605;SDS011;3844;53.360;9.738;2023-02-13T02:14:36;19.05;;;8.60;;
7605;SDS011;3844;53.360;9.738;2023-02-13T02:16:38;20.80;;;9.40;;
7605;SDS011;3844;53.360;9.738;2023-02-13T02:18:39;20.02;;;9.40;;
7605;SDS011;3844;53.360;9.738;2023-02-13T02:23:04;21.38;;;9.50;;
7605;SDS011;3844;53.360;9.738;2023-02-13T02:27:45;19.17;;;8.70;;
7605;SDS011;3844;53.360;9.738;2023-02-13T02:41:29;18.58;;;8.52;;
7605;SDS011;3844;53.360;9.738;2023-02-13T02:43:49;18.77;;;8.88;;
7605;SDS011;3844;53.360;9.738;2023-02-13T02:45:56;18.83;;;9.02;;
7605;SDS011;3844;53.360;9.738;2023-02-13T02:48:21;19.52;;;8.45;;
7605;SDS011;3844;53.360;9.738;2023-02-13T03:00:23;16.63;;;7.70;;
7605;SDS011;3844;53.360;9.738;2023-02-13T03:02:43;18.75;;;8.90;;
7605;SDS011;3844;53.360;9.738;2023-02-13T03:05:03;16.55;;;7.53;;
7605;SDS011;3844;53.360;9.738;2023-02-13T03:07:33;18.70;;;8.70;;
7605;SDS011;3844;53.360;9.738;2023-02-13T03:09:39;19.38;;;8.70;;
7605;SDS011;3844;53.360;9.738;2023-02-13T03:12:00;22.15;;;9.40;;
7605;SDS011;3844;53.360;9.738;2023-02-13T03:14:20;18.60;;;8.63;;
7605;SDS011;3844;53.360;9.738;2023-02-13T03:16:25;17.17;;;8.50;;
7605;SDS011;3844;53.360;9.738;2023-02-13T03:18:46;17.73;;;8.70;;
7605;SDS011;3844;53.360;9.738;2023-02-13T03:21:12;17.80;;;8.63;;
7605;SDS011;3844;53.360;9.738;2023-02-13T03:23:48;19.15;;;8.75;;
7605;SDS011;3844;53.360;9.738;2023-02-13T03:35:25;18.75;;;8.35;;
7605;SDS011;3844;53.360;9.738;2023-02-13T03:37:57;17.58;;;7.80;;
7605;SDS011;3844;53.360;9.738;2023-02-13T03:40:06;17.55;;;8.25;;
7605;SDS011;3844;53.360;9.738;2023-02-13T03:44:35;14.57;;;7.50;;
7605;SDS011;3844;53.360;9.738;2023-02-13T03:46:41;20.60;;;8.82;;
7605;SDS011;3844;53.360;9.738;2023-02-13T03:48:45;17.60;;;8.40;;
7605;SDS011;3844;53.360;9.738;2023-02-13T03:51:05;16.73;;;7.78;;
7605;SDS011;3844;53.360;9.738;2023-02-13T03:55:13;15.40;;;7.13;;
7605;SDS011;3844;53.360;9.738;2023-02-13T03:57:40;16.48;;;8.07;;
7605;SDS011;3844;53.360;9.738;2023-02-13T04:00:02;17.85;;;8.48;;
7605;SDS011;3844;53.360;9.738;2023-02-13T04:02:12;16.80;;;8.05;;
7605;SDS011;3844;53.360;9.738;2023-02-13T04:04:24;19.48;;;8.48;;
7605;SDS011;3844;53.360;9.738;2023-02-13T04:06:34;17.85;;;8.00;;
7605;SDS011;3844;53.360;9.738;2023-02-13T04:08:48;17.23;;;8.73;;
7605;SDS011;3844;53.360;9.738;2023-02-13T04:10:53;19.50;;;9.32;;
7605;SDS011;3844;53.360;9.738;2023-02-13T04:15:23;17.00;;;8.50;;
7605;SDS011;3844;53.360;9.738;2023-02-13T04:17:35;16.42;;;7.75;;
7605;SDS011;3844;53.360;9.738;2023-02-13T04:19:39;18.73;;;9.10;;
7605;SDS011;3844;53.360;9.738;2023-02-13T04:21:40;18.08;;;8.82;;
7605;SDS011;3844;53.360;9.738;2023-02-13T04:23:41;17.95;;;8.57;;
7605;SDS011;3844;53.360;9.738;2023-02-13T04:25:43;16.90;;;7.97;;
7605;SDS011;3844;53.360;9.738;2023-02-13T04:27:47;17.08;;;8.13;;
7605;SDS011;3844;53.360;9.738;2023-02-13T04:29:48;17.92;;;8.57;;
7605;SDS011;3844;53.360;9.738;2023-02-13T04:31:49;15.38;;;7.72;;
7605;SDS011;3844;53.360;9.738;2023-02-13T04:33:50;19.30;;;8.93;;
7605;SDS011;3844;53.360;9.738;2023-02-13T04:35:50;17.42;;;8.10;;
7605;SDS011;3844;53.360;9.738;2023-02-13T04:37:51;15.88;;;7.53;;
7605;SDS011;3844;53.360;9.738;2023-02-13T04:39:52;17.15;;;8.02;;
7605;SDS011;3844;53.360;9.738;2023-02-13T04:41:53;14.60;;;7.30;;
7605;SDS011;3844;53.360;9.738;2023-02-13T04:43:53;17.23;;;8.00;;
7605;SDS011;3844;53.360;9.738;2023-02-13T04:45:54;16.17;;;8.05;;
7605;SDS011;3844;53.360;9.738;2023-02-13T04:47:55;17.25;;;8.13;;
7605;SDS011;3844;53.360;9.738;2023-02-13T04:49:56;15.32;;;8.13;;
7605;SDS011;3844;53.360;9.738;2023-02-13T04:51:57;16.90;;;8.15;;
7605;SDS011;3844;53.360;9.738;2023-02-13T04:53:57;14.48;;;7.47;;
7605;SDS011;3844;53.360;9.738;2023-02-13T04:55:58;15.02;;;7.30;;
7605;SDS011;3844;53.360;9.738;2023-02-13T04:57:59;15.90;;;7.85;;
7605;SDS011;3844;53.360;9.738;2023-02-13T05:00:00;15.43;;;7.22;;
7605;SDS011;3844;53.360;9.738;2023-02-13T05:02:00;15.43;;;7.55;;
7605;SDS011;3844;53.360;9.738;2023-02-13T05:04:01;16.23;;;8.10;;
7605;SDS011;3844;53.360;9.738;2023-02-13T05:06:02;17.75;;;7.80;;
7605;SDS011;3844;53.360;9.738;2023-02-13T05:08:03;19.67;;;9.15;;
7605;SDS011;3844;53.360;9.738;2023-02-13T05:10:04;19.48;;;8.70;;
7605;SDS011;3844;53.360;9.738;2023-02-13T05:12:06;18.02;;;9.00;;
7605;SDS011;3844;53.360;9.738;2023-02-13T05:14:06;17.23;;;8.55;;
7605;SDS011;3844;53.360;9.738;2023-02-13T05:16:09;19.70;;;9.40;;
7605;SDS011;3844;53.360;9.738;2023-02-13T05:18:09;16.60;;;8.65;;
7605;SDS011;3844;53.360;9.738;2023-02-13T05:20:10;18.27;;;8.52;;
7605;SDS011;3844;53.360;9.738;2023-02-13T05:22:12;20.33;;;9.20;;
7605;SDS011;3844;53.360;9.738;2023-02-13T05:24:33;16.85;;;8.48;;
7605;SDS011;3844;53.360;9.738;2023-02-13T05:26:33;25.38;;;13.27;;
7605;SDS011;3844;53.360;9.738;2023-02-13T05:28:34;20.50;;;9.60;;
7605;SDS011;3844;53.360;9.738;2023-02-13T05:30:53;18.80;;;9.48;;
7605;SDS011;3844;53.360;9.738;2023-02-13T05:32:54;20.00;;;9.30;;
7605;SDS011;3844;53.360;9.738;2023-02-13T05:34:55;18.00;;;8.88;;
7605;SDS011;3844;53.360;9.738;2023-02-13T05:36:55;19.17;;;9.02;;
7605;SDS011;3844;53.360;9.738;2023-02-13T05:38:56;20.55;;;8.80;;
7605;SDS011;3844;53.360;9.738;2023-02-13T05:40:57;16.75;;;8.20;;
7605;SDS011;3844;53.360;9.738;2023-02-13T05:42:59;21.25;;;9.95;;
7605;SDS011;3844;53.360;9.738;2023-02-13T05:45:00;19.08;;;9.27;;
7605;SDS011;3844;53.360;9.738;2023-02-13T05:47:00;23.42;;;9.98;;
7605;SDS011;3844;53.360;9.738;2023-02-13T05:49:01;20.15;;;9.27;;
7605;SDS011;3844;53.360;9.738;2023-02-13T05:51:02;19.25;;;9.07;;
7605;SDS011;3844;53.360;9.738;2023-02-13T05:53:03;18.73;;;8.95;;
7605;SDS011;3844;53.360;9.738;2023-02-13T05:55:04;17.42;;;8.65;;
7605;SDS011;3844;53.360;9.738;2023-02-13T05:57:05;16.92;;;8.77;;
7605;SDS011;3844;53.360;9.738;2023-02-13T05:59:05;17.13;;;8.60;;
7605;SDS011;3844;53.360;9.738;2023-02-13T06:01:06;17.08;;;8.50;;
7605;SDS011;3844;53.360;9.738;2023-02-13T06:03:07;16.50;;;8.65;;
7605;SDS011;3844;53.360;9.738;2023-02-13T06:05:08;18.75;;;9.07;;
7605;SDS011;3844;53.360;9.738;2023-02-13T06:07:08;20.35;;;9.10;;
7605;SDS011;3844;53.360;9.738;2023-02-13T06:09:09;17.02;;;9.02;;
7605;SDS011;3844;53.360;9.738;2023-02-13T06:11:10;17.98;;;9.38;;
7605;SDS011;3844;53.360;9.738;2023-02-13T06:13:11;17.58;;;9.18;;
7605;SDS011;3844;53.360;9.738;2023-02-13T06:15:11;17.50;;;8.50;;
7605;SDS011;3844;53.360;9.738;2023-02-13T06:17:12;18.58;;;9.10;;
7605;SDS011;3844;53.360;9.738;2023-02-13T06:19:13;17.42;;;8.70;;
7605;SDS011;3844;53.360;9.738;2023-02-13T06:21:13;20.35;;;9.57;;
7605;SDS011;3844;53.360;9.738;2023-02-13T06:23:14;17.98;;;9.13;;
7605;SDS011;3844;53.360;9.738;2023-02-13T06:25:15;18.25;;;8.90;;
7605;SDS011;3844;53.360;9.738;2023-02-13T06:27:15;18.05;;;8.90;;
7605;SDS011;3844;53.360;9.738;2023-02-13T06:29:16;25.23;;;11.40;;
7605;SDS011;3844;53.360;9.738;2023-02-13T06:31:17;21.80;;;10.38;;
7605;SDS011;3844;53.360;9.738;2023-02-13T06:33:18;24.98;;;12.00;;
7605;SDS011;3844;53.360;9.738;2023-02-13T06:35:18;21.42;;;10.32;;
7605;SDS011;3844;53.360;9.738;2023-02-13T06:37:19;21.67;;;10.57;;
7605;SDS011;3844;53.360;9.738;2023-02-13T06:39:20;21.55;;;10.32;;
7605;SDS011;3844;53.360;9.738;2023-02-13T06:41:20;28.52;;;12.60;;
7605;SDS011;3844;53.360;9.738;2023-02-13T06:43:21;24.20;;;11.10;;
7605;SDS011;3844;53.360;9.738;2023-02-13T06:45:22;24.45;;;10.65;;
7605;SDS011;3844;53.360;9.738;2023-02-13T06:47:23;22.77;;;10.82;;
7605;SDS011;3844;53.360;9.738;2023-02-13T06:49:24;28.30;;;11.75;;
7605;SDS011;3844;53.360;9.738;2023-02-13T06:51:24;25.40;;;11.45;;
7605;SDS011;3844;53.360;9.738;2023-02-13T06:53:25;24.10;;;11.07;;
7605;SDS011;3844;53.360;9.738;2023-02-13T06:55:26;22.92;;;10.50;;
7605;SDS011;3844;53.360;9.738;2023-02-13T06:57:26;24.42;;;10.82;;
7605;SDS011;3844;53.360;9.738;2023-02-13T06:59:31;23.42;;;11.07;;
7605;SDS011;3844;53.360;9.738;2023-02-13T07:01:32;21.17;;;10.43;;
7605;SDS011;3844;53.360;9.738;2023-02-13T07:03:33;24.38;;;10.98;;
7605;SDS011;3844;53.360;9.738;2023-02-13T07:05:33;24.73;;;11.52;;
7605;SDS011;3844;53.360;9.738;2023-02-13T07:07:35;25.20;;;10.93;;
7605;SDS011;3844;53.360;9.738;2023-02-13T07:09:36;23.27;;;10.65;;
7605;SDS011;3844;53.360;9.738;2023-02-13T07:11:37;23.27;;;10.35;;
7605;SDS011;3844;53.360;9.738;2023-02-13T07:13:41;26.63;;;12.07;;
7605;SDS011;3844;53.360;9.738;2023-02-13T07:15:41;24.02;;;10.93;;
7605;SDS011;3844;53.360;9.738;2023-02-13T07:17:42;23.63;;;10.52;;
7605;SDS011;3844;53.360;9.738;2023-02-13T07:19:43;27.40;;;12.02;;
7605;SDS011;3844;53.360;9.738;2023-02-13T07:21:43;25.17;;;11.13;;
7605;SDS011;3844;53.360;9.738;2023-02-13T07:23:44;24.88;;;11.32;;
7605;SDS011;3844;53.360;9.738;2023-02-13T07:25:45;23.08;;;11.13;;
7605;SDS011;3844;53.360;9.738;2023-02-13T07:27:45;22.88;;;10.80;;
7605;SDS011;3844;53.360;9.738;2023-02-13T07:29:46;28.02;;;12.23;;
7605;SDS011;3844;53.360;9.738;2023-02-13T07:31:47;35.03;;;14.70;;
7605;SDS011;3844;53.360;9.738;2023-02-13T07:33:48;31.13;;;13.30;;
7605;SDS011;3844;53.360;9.738;2023-02-13T07:35:49;29.35;;;12.32;;
7605;SDS011;3844;53.360;9.738;2023-02-13T07:37:54;24.17;;;11.30;;
7605;SDS011;3844;53.360;9.738;2023-02-13T07:39:55;26.48;;;12.43;;
7605;SDS011;3844;53.360;9.738;2023-02-13T07:41:55;38.08;;;15.32;;
7605;SDS011;3844;53.360;9.738;2023-02-13T07:43:56;29.48;;;13.05;;
7605;SDS011;3844;53.360;9.738;2023-02-13T07:45:57;33.40;;;13.45;;
7605;SDS011;3844;53.360;9.738;2023-02-13T07:47:59;29.13;;;12.85;;
7605;SDS011;3844;53.360;9.738;2023-02-13T07:50:01;34.00;;;14.30;;
7605;SDS011;3844;53.360;9.738;2023-02-13T07:52:06;33.13;;;13.90;;
7605;SDS011;3844;53.360;9.738;2023-02-13T07:54:07;30.05;;;12.82;;
7605;SDS011;3844;53.360;9.738;2023-02-13T07:56:08;32.00;;;13.20;;
7605;SDS011;3844;53.360;9.738;2023-02-13T07:58:10;26.98;;;12.10;;
7605;SDS011;3844;53.360;9.738;2023-02-13T08:00:11;24.75;;;11.30;;
7605;SDS011;3844;53.360;9.738;2023-02-13T08:02:13;34.55;;;14.77;;
7605;SDS011;3844;53.360;9.738;2023-02-13T08:04:14;28.48;;;11.98;;
7605;SDS011;3844;53.360;9.738;2023-02-13T08:06:15;30.65;;;13.05;;
7605;SDS011;3844;53.360;9.738;2023-02-13T08:08:17;31.95;;;14.13;;
7605;SDS011;3844;53.360;9.738;2023-02-13T08:10:17;44.55;;;18.05;;
7605;SDS011;3844;53.360;9.738;2023-02-13T08:12:36;31.92;;;13.50;;
7605;SDS011;3844;53.360;9.738;2023-02-13T08:14:37;32.75;;;13.77;;
7605;SDS011;3844;53.360;9.738;2023-02-13T08:16:38;30.63;;;13.13;;
7605;SDS011;3844;53.360;9.738;2023-02-13T08:18:39;34.67;;;14.55;;
7605;SDS011;3844;53.360;9.738;2023-02-13T08:20:40;31.83;;;13.90;;
7605;SDS011;3844;53.360;9.738;2023-02-13T08:22:41;33.00;;;14.20;;
7605;SDS011;3844;53.360;9.738;2023-02-13T08:24:41;32.78;;;13.95;;
7605;SDS011;3844;53.360;9.738;2023-02-13T08:26:42;28.98;;;12.35;;
7605;SDS011;3844;53.360;9.738;2023-02-13T08:28:43;30.80;;;13.25;;
7605;SDS011;3844;53.360;9.738;2023-02-13T08:30:43;27.38;;;12.15;;
7605;SDS011;3844;53.360;9.738;2023-02-13T08:32:44;41.65;;;16.33;;
7605;SDS011;3844;53.360;9.738;2023-02-13T08:34:44;39.55;;;15.65;;
7605;SDS011;3844;53.360;9.738;2023-02-13T08:36:45;33.97;;;13.73;;
7605;SDS011;3844;53.360;9.738;2023-02-13T08:38:46;30.15;;;13.00;;
7605;SDS011;3844;53.360;9.738;2023-02-13T08:40:47;29.67;;;12.45;;
7605;SDS011;3844;53.360;9.738;2023-02-13T08:42:48;30.15;;;12.93;;
7605;SDS011;3844;53.360;9.738;2023-02-13T08:44:48;30.50;;;12.75;;
7605;SDS011;3844;53.360;9.738;2023-02-13T08:46:49;28.33;;;12.48;;
7605;SDS011;3844;53.360;9.738;2023-02-13T08:48:50;25.60;;;11.70;;
7605;SDS011;3844;53.360;9.738;2023-02-13T08:50:51;27.50;;;12.13;;
7605;SDS011;3844;53.360;9.738;2023-02-13T08:52:52;26.35;;;11.88;;
7605;SDS011;3844;53.360;9.738;2023-02-13T08:54:53;28.00;;;12.93;;
7605;SDS011;3844;53.360;9.738;2023-02-13T08:56:54;28.88;;;13.00;;
7605;SDS011;3844;53.360;9.738;2023-02-13T08:58:54;28.95;;;13.43;;
7605;SDS011;3844;53.360;9.738;2023-02-13T09:00:55;30.08;;;12.23;;
7605;SDS011;3844;53.360;9.738;2023-02-13T09:03:00;29.52;;;13.63;;
7605;SDS011;3844;53.360;9.738;2023-02-13T09:05:01;28.88;;;13.20;;
7605;SDS011;3844;53.360;9.738;2023-02-13T09:07:02;28.23;;;13.35;;
7605;SDS011;3844;53.360;9.738;2023-02-13T09:09:03;28.13;;;12.77;;
7605;SDS011;3844;53.360;9.738;2023-02-13T09:11:04;28.42;;;12.73;;
7605;SDS011;3844;53.360;9.738;2023-02-13T09:13:06;27.95;;;12.77;;
7605;SDS011;3844;53.360;9.738;2023-02-13T09:15:07;27.42;;;12.57;;
7605;SDS011;3844;53.360;9.738;2023-02-13T09:17:08;29.17;;;13.52;;
7605;SDS011;3844;53.360;9.738;2023-02-13T09:19:09;27.27;;;12.73;;
7605;SDS011;3844;53.360;9.738;2023-02-13T09:21:10;31.17;;;13.50;;
7605;SDS011;3844;53.360;9.738;2023-02-13T09:23:11;29.15;;;13.43;;
7605;SDS011;3844;53.360;9.738;2023-02-13T09:25:16;28.13;;;12.60;;
7605;SDS011;3844;53.360;9.738;2023-02-13T09:27:19;21.42;;;9.65;;
7605;SDS011;3844;53.360;9.738;2023-02-13T09:29:19;26.02;;;11.95;;
7605;SDS011;3844;53.360;9.738;2023-02-13T09:31:20;30.60;;;14.35;;
7605;SDS011;3844;53.360;9.738;2023-02-13T09:33:23;31.38;;;14.57;;
7605;SDS011;3844;53.360;9.738;2023-02-13T09:35:25;27.40;;;13.52;;
7605;SDS011;3844;53.360;9.738;2023-02-13T09:37:26;28.83;;;13.20;;
7605;SDS011;3844;53.360;9.738;2023-02-13T09:39:27;27.73;;;12.77;;
7605;SDS011;3844;53.360;9.738;2023-02-13T09:41:29;28.35;;;12.95;;
7605;SDS011;3844;53.360;9.738;2023-02-13T09:43:52;28.63;;;13.82;;
7605;SDS011;3844;53.360;9.738;2023-02-13T09:46:12;26.88;;;12.77;;
7605;SDS011;3844;53.360;9.738;2023-02-13T09:48:21;34.30;;;14.50;;
7605;SDS011;3844;53.360;9.738;2023-02-13T09:50:30;32.53;;;15.00;;
7605;SDS011;3844;53.360;9.738;2023-02-13T09:52:33;40.97;;;18.05;;
7605;SDS011;3844;53.360;9.738;2023-02-13T09:54:35;37.95;;;17.55;;
7605;SDS011;3844;53.360;9.738;2023-02-13T09:59:05;38.97;;;17.02;;
7605;SDS011;3844;53.360;9.738;2023-02-13T10:01:45;34.15;;;15.52;;
7605;SDS011;3844;53.360;9.738;2023-02-13T10:05:57;33.20;;;15.25;;
7605;SDS011;3844;53.360;9.738;2023-02-13T10:13:00;39.80;;;17.40;;
7605;SDS011;3844;53.360;9.738;2023-02-13T10:15:11;34.63;;;15.75;;
7605;SDS011;3844;53.360;9.738;2023-02-13T10:17:26;42.08;;;18.23;;
7605;SDS011;3844;53.360;9.738;2023-02-13T10:19:40;36.97;;;17.40;;
7605;SDS011;3844;53.360;9.738;2023-02-13T10:21:58;37.17;;;17.38;;
7605;SDS011;3844;53.360;9.738;2023-02-13T10:24:06;36.63;;;17.77;;
7605;SDS011;3844;53.360;9.738;2023-02-13T10:26:36;37.78;;;17.35;;
7605;SDS011;3844;53.360;9.738;2023-02-13T10:28:51;41.17;;;18.42;;
7605;SDS011;3844;53.360;9.738;2023-02-13T10:31:16;43.85;;;19.25;;
7605;SDS011;3844;53.360;9.738;2023-02-13T10:35:28;36.63;;;17.98;;
7605;SDS011;3844;53.360;9.738;2023-02-13T10:37:30;34.80;;;16.90;;
7605;SDS011;3844;53.360;9.738;2023-02-13T10:39:31;36.83;;;17.30;;
7605;SDS011;3844;53.360;9.738;2023-02-13T10:44:00;39.15;;;18.63;;
7605;SDS011;3844;53.360;9.738;2023-02-13T10:46:08;35.05;;;17.30;;
7605;SDS011;3844;53.360;9.738;2023-02-13T10:48:28;32.28;;;15.85;;
7605;SDS011;3844;53.360;9.738;2023-02-13T10:53:27;32.25;;;16.40;;
7605;SDS011;3844;53.360;9.738;2023-02-13T11:01:18;31.17;;;15.57;;
7605;SDS011;3844;53.360;9.738;2023-02-13T11:02:52;28.55;;;13.95;;
7605;SDS011;3844;53.360;9.738;2023-02-13T11:04:57;30.90;;;15.25;;
7605;SDS011;3844;53.360;9.738;2023-02-13T11:07:01;30.67;;;15.25;;
7605;SDS011;3844;53.360;9.738;2023-02-13T11:09:10;33.22;;;16.08;;
7605;SDS011;3844;53.360;9.738;2023-02-13T11:11:32;32.20;;;16.40;;
7605;SDS011;3844;53.360;9.738;2023-02-13T11:13:37;37.50;;;17.50;;
7605;SDS011;3844;53.360;9.738;2023-02-13T11:15:38;35.17;;;17.15;;
7605;SDS011;3844;53.360;9.738;2023-02-13T11:17:40;32.95;;;16.65;;
7605;SDS011;3844;53.360;9.738;2023-02-13T11:19:50;34.80;;;17.00;;
7605;SDS011;3844;53.360;9.738;2023-02-13T11:21:56;39.45;;;19.15;;
7605;SDS011;3844;53.360;9.738;2023-02-13T11:24:23;34.05;;;17.33;;
7605;SDS011;3844;53.360;9.738;2023-02-13T11:26:35;36.67;;;18.27;;
7605;SDS011;3844;53.360;9.738;2023-02-13T11:28:55;36.17;;;17.98;;
7605;SDS011;3844;53.360;9.738;2023-02-13T11:31:43;35.45;;;17.02;;
7605;SDS011;3844;53.360;9.738;2023-02-13T11:33:29;33.53;;;16.38;;
7605;SDS011;3844;53.360;9.738;2023-02-13T11:35:33;32.10;;;16.00;;
7605;SDS011;3844;53.360;9.738;2023-02-13T11:37:35;38.63;;;17.70;;
7605;SDS011;3844;53.360;9.738;2023-02-13T11:39:36;32.25;;;16.05;;
7605;SDS011;3844;53.360;9.738;2023-02-13T11:41:41;30.98;;;15.48;;
7605;SDS011;3844;53.360;9.738;2023-02-13T11:43:45;32.33;;;15.45;;
7605;SDS011;3844;53.360;9.738;2023-02-13T11:45:59;31.73;;;15.50;;
7605;SDS011;3844;53.360;9.738;2023-02-13T11:48:16;35.65;;;16.67;;
7605;SDS011;3844;53.360;9.738;2023-02-13T11:52:25;33.10;;;16.77;;
7605;SDS011;3844;53.360;9.738;2023-02-13T11:54:35;30.55;;;16.00;;
7605;SDS011;3844;53.360;9.738;2023-02-13T11:56:49;35.10;;;17.33;;
7605;SDS011;3844;53.360;9.738;2023-02-13T11:59:00;39.33;;;18.55;;
7605;SDS011;3844;53.360;9.738;2023-02-13T12:03:25;35.10;;;17.27;;
7605;SDS011;3844;53.360;9.738;2023-02-13T12:05:29;34.72;;;16.95;;
7605;SDS011;3844;53.360;9.738;2023-02-13T12:07:30;36.00;;;17.27;;
7605;SDS011;3844;53.360;9.738;2023-02-13T12:09:32;34.30;;;16.52;;
7605;SDS011;3844;53.360;9.738;2023-02-13T12:11:37;33.55;;;15.82;;
7605;SDS011;3844;53.360;9.738;2023-02-13T12:13:44;30.90;;;15.32;;
7605;SDS011;3844;53.360;9.738;2023-02-13T12:15:49;30.25;;;15.40;;
7605;SDS011;3844;53.360;9.738;2023-02-13T12:18:04;34.40;;;16.75;;
7605;SDS011;3844;53.360;9.738;2023-02-13T12:20:10;33.85;;;17.00;;
7605;SDS011;3844;53.360;9.738;2023-02-13T12:22:21;30.88;;;15.50;;
7605;SDS011;3844;53.360;9.738;2023-02-13T12:24:55;30.98;;;15.48;;
7605;SDS011;3844;53.360;9.738;2023-02-13T12:50:06;36.20;;;18.30;;
7605;SDS011;3844;53.360;9.738;2023-02-13T12:52:38;34.35;;;17.00;;
7605;SDS011;3844;53.360;9.738;2023-02-13T12:59:28;34.65;;;16.48;;
7605;SDS011;3844;53.360;9.738;2023-02-13T13:01:44;37.58;;;17.30;;
7605;SDS011;3844;53.360;9.738;2023-02-13T13:14:06;39.58;;;18.30;;
7605;SDS011;3844;53.360;9.738;2023-02-13T13:16:31;36.75;;;17.83;;
7605;SDS011;3844;53.360;9.738;2023-02-13T13:20:57;40.30;;;19.08;;
7605;SDS011;3844;53.360;9.738;2023-02-13T13:23:18;38.60;;;17.63;;
7605;SDS011;3844;53.360;9.738;2023-02-13T13:25:27;39.78;;;18.80;;
7605;SDS011;3844;53.360;9.738;2023-02-13T13:27:44;33.67;;;16.80;;
7605;SDS011;3844;53.360;9.738;2023-02-13T13:29:50;34.53;;;16.58;;
7605;SDS011;3844;53.360;9.738;2023-02-13T13:34:11;34.92;;;17.00;;
7605;SDS011;3844;53.360;9.738;2023-02-13T13:38:43;34.50;;;16.60;;
7605;SDS011;3844;53.360;9.738;2023-02-13T13:41:04;39.38;;;18.42;;
7605;SDS011;3844;53.360;9.738;2023-02-13T13:47:49;34.90;;;17.33;;
7605;SDS011;3844;53.360;9.738;2023-02-13T13:52:25;37.03;;;18.48;;
7605;SDS011;3844;53.360;9.738;2023-02-13T13:54:32;37.70;;;18.02;;
7605;SDS011;3844;53.360;9.738;2023-02-13T13:59:00;33.92;;;17.20;;
7605;SDS011;3844;53.360;9.738;2023-02-13T14:03:22;34.30;;;17.60;;
7605;SDS011;3844;53.360;9.738;2023-02-13T14:05:34;32.95;;;16.48;;
7605;SDS011;3844;53.360;9.738;2023-02-13T14:08:00;34.05;;;16.75;;
7605;SDS011;3844;53.360;9.738;2023-02-13T14:10:04;34.03;;;16.73;;
7605;SDS011;3844;53.360;9.738;2023-02-13T14:16:36;33.03;;;16.35;;
7605;SDS011;3844;53.360;9.738;2023-02-13T14:18:41;30.13;;;15.18;;
7605;SDS011;3844;53.360;9.738;2023-02-13T14:22:49;33.92;;;16.45;;
7605;SDS011;3844;53.360;9.738;2023-02-13T14:24:54;31.70;;;15.65;;
7605;SDS011;3844;53.360;9.738;2023-02-13T14:26:56;33.13;;;16.10;;
7605;SDS011;3844;53.360;9.738;2023-02-13T14:33:24;31.20;;;15.43;;
7605;SDS011;3844;53.360;9.738;2023-02-13T14:35:30;30.27;;;15.35;;
7605;SDS011;3844;53.360;9.738;2023-02-13T14:37:37;28.15;;;14.85;;
7605;SDS011;3844;53.360;9.738;2023-02-13T14:42:22;28.20;;;14.25;;
7605;SDS011;3844;53.360;9.738;2023-02-13T14:44:48;33.33;;;15.70;;
7605;SDS011;3844;53.360;9.738;2023-02-13T14:46:52;31.58;;;15.25;;
7605;SDS011;3844;53.360;9.738;2023-02-13T14:50:55;33.95;;;16.92;;
7605;SDS011;3844;53.360;9.738;2023-02-13T14:53:02;36.95;;;17.35;;
7605;SDS011;3844;53.360;9.738;2023-02-13T14:56:01;37.00;;;17.17;;
7605;SDS011;3844;53.360;9.738;2023-02-13T14:57:46;34.90;;;17.05;;
7605;SDS011;3844;53.360;9.738;2023-02-13T14:59:52;35.58;;;16.60;;
7605;SDS011;3844;53.360;9.738;2023-02-13T15:01:58;33.50;;;15.85;;
7605;SDS011;3844;53.360;9.738;2023-02-13T15:04:10;30.42;;;14.43;;
7605;SDS011;3844;53.360;9.738;2023-02-13T15:06:25;30.55;;;15.52;;